sensor_id;sensor_type;location;lat;lon;timestamp;temperature;humidity
13229;DHT22;6680;53.220;10.402;2023-03-14T00:00:18;10.30;99.90
13229;DHT22;6680;53.220;10.402;2023-03-14T00:02:45;10.40;99.90
13229;DHT22;6680;53.220;10.402;2023-03-14T00:05:13;10.50;99.90
13229;DHT22;6680;53.220;10.402;2023-03-14T00:07:40;10.70;99.90
13229;DHT22;6680;53.220;10.402;2023-03-14T00:10:09;10.80;99.90
13229;DHT22;6680;53.220;10.402;2023-03-14T00:12:37;10.90;99.90
13229;DHT22;6680;53.220;10.402;2023-03-14T00:15:05;11.00;99.90
13229;DHT22;6680;53.220;10.402;2023-03-14T00:17:34;11.10;99.90
13229;DHT22;6680;53.220;10.402;2023-03-14T00:20:01;11.10;99.90
13229;DHT22;6680;53.220;10.402;2023-03-14T00:22:34;11.10;99.90
13229;DHT22;6680;53.220;10.402;2023-03-14T00:25:02;11.10;99.90
13229;DHT22;6680;53.220;10.402;2023-03-14T00:27:29;11.10;99.90
13229;DHT22;6680;53.220;10.402;2023-03-14T00:29:55;11.10;99.90
13229;DHT22;6680;53.220;10.402;2023-03-14T00:32:22;11.10;99.90
13229;DHT22;6680;53.220;10.402;2023-03-14T00:34:49;11.10;99.90
13229;DHT22;6680;53.220;10.402;2023-03-14T00:37:16;11.30;99.90
13229;DHT22;6680;53.220;10.402;2023-03-14T00:39:44;11.30;99.90
13229;DHT22;6680;53.220;10.402;2023-03-14T00:42:10;11.40;99.90
13229;DHT22;6680;53.220;10.402;2023-03-14T00:44:37;11.40;99.90
13229;DHT22;6680;53.220;10.402;2023-03-14T00:47:04;11.40;99.90
13229;DHT22;6680;53.220;10.402;2023-03-14T00:49:31;11.40;99.90
13229;DHT22;6680;53.220;10.402;2023-03-14T00:51:57;11.40;99.90
13229;DHT22;6680;53.220;10.402;2023-03-14T00:54:24;11.30;99.90
13229;DHT22;6680;53.220;10.402;2023-03-14T00:56:52;11.10;99.90
13229;DHT22;6680;53.220;10.402;2023-03-14T00:59:19;11.00;99.90
13229;DHT22;6680;53.220;10.402;2023-03-14T01:01:46;10.90;99.90
13229;DHT22;6680;53.220;10.402;2023-03-14T01:04:12;10.90;99.90
13229;DHT22;6680;53.220;10.402;2023-03-14T01:06:39;10.80;99.90
13229;DHT22;6680;53.220;10.402;2023-03-14T01:09:06;10.80;99.90
13229;DHT22;6680;53.220;10.402;2023-03-14T01:11:34;10.80;99.90
13229;DHT22;6680;53.220;10.402;2023-03-14T01:14:03;10.90;99.90
13229;DHT22;6680;53.220;10.402;2023-03-14T01:16:32;10.80;99.90
13229;DHT22;6680;53.220;10.402;2023-03-14T01:18:59;10.80;99.90
13229;DHT22;6680;53.220;10.402;2023-03-14T01:21:28;10.90;99.90
13229;DHT22;6680;53.220;10.402;2023-03-14T01:23:56;10.90;99.90
13229;DHT22;6680;53.220;10.402;2023-03-14T01:26:24;10.90;99.90
13229;DHT22;6680;53.220;10.402;2023-03-14T01:28:53;10.90;99.90
13229;DHT22;6680;53.220;10.402;2023-03-14T01:31:21;10.90;99.90
13229;DHT22;6680;53.220;10.402;2023-03-14T01:33:48;10.90;99.90
13229;DHT22;6680;53.220;10.402;2023-03-14T01:36:15;10.80;99.90
13229;DHT22;6680;53.220;10.402;2023-03-14T01:38:42;10.80;99.90
13229;DHT22;6680;53.220;10.402;2023-03-14T01:41:13;10.80;99.90
13229;DHT22;6680;53.220;10.402;2023-03-14T01:43:40;10.70;99.90
13229;DHT22;6680;53.220;10.402;2023-03-14T01:46:29;10.70;99.90
13229;DHT22;6680;53.220;10.402;2023-03-14T01:49:01;10.80;99.90
13229;DHT22;6680;53.220;10.402;2023-03-14T01:51:33;10.80;99.90
13229;DHT22;6680;53.220;10.402;2023-03-14T01:54:10;10.80;99.90
13229;DHT22;6680;53.220;10.402;2023-03-14T01:56:39;10.80;99.90
13229;DHT22;6680;53.220;10.402;2023-03-14T01:59:08;10.70;99.90
13229;DHT22;6680;53.220;10.402;2023-03-14T02:01:39;10.70;99.90
13229;DHT22;6680;53.220;10.402;2023-03-14T02:04:08;10.70;99.90
13229;DHT22;6680;53.220;10.402;2023-03-14T02:06:44;10.70;99.90
13229;DHT22;6680;53.220;10.402;2023-03-14T02:09:13;10.70;99.90
13229;DHT22;6680;53.220;10.402;2023-03-14T02:11:40;10.60;99.90
13229;DHT22;6680;53.220;10.402;2023-03-14T02:14:09;10.60;99.90
13229;DHT22;6680;53.220;10.402;2023-03-14T02:16:41;10.60;99.90
13229;DHT22;6680;53.220;10.402;2023-03-14T02:19:09;10.50;99.90
13229;DHT22;6680;53.220;10.402;2023-03-14T02:21:45;10.50;99.90
13229;DHT22;6680;53.220;10.402;2023-03-14T02:24:19;10.40;99.90
13229;DHT22;6680;53.220;10.402;2023-03-14T02:27:19;10.20;99.90
13229;DHT22;6680;53.220;10.402;2023-03-14T02:29:51;10.10;99.90
13229;DHT22;6680;53.220;10.402;2023-03-14T02:32:20;10.00;99.90
13229;DHT22;6680;53.220;10.402;2023-03-14T02:34:50;9.50;99.90
13229;DHT22;6680;53.220;10.402;2023-03-14T02:37:21;9.70;99.90
13229;DHT22;6680;53.220;10.402;2023-03-14T02:39:48;9.80;99.90
13229;DHT22;6680;53.220;10.402;2023-03-14T02:42:16;9.50;99.90
13229;DHT22;6680;53.220;10.402;2023-03-14T02:44:51;9.50;99.90
13229;DHT22;6680;53.220;10.402;2023-03-14T02:47:20;9.30;99.90
13229;DHT22;6680;53.220;10.402;2023-03-14T02:49:48;9.20;99.90
13229;DHT22;6680;53.220;10.402;2023-03-14T02:52:15;9.20;99.90
13229;DHT22;6680;53.220;10.402;2023-03-14T02:54:41;9.20;99.90
13229;DHT22;6680;53.220;10.402;2023-03-14T02:57:08;9.30;99.90
13229;DHT22;6680;53.220;10.402;2023-03-14T02:59:35;9.30;99.90
13229;DHT22;6680;53.220;10.402;2023-03-14T03:02:03;9.40;99.90
13229;DHT22;6680;53.220;10.402;2023-03-14T03:04:29;9.50;99.90
13229;DHT22;6680;53.220;10.402;2023-03-14T03:06:56;9.50;99.90
13229;DHT22;6680;53.220;10.402;2023-03-14T03:09:23;9.50;99.90
13229;DHT22;6680;53.220;10.402;2023-03-14T03:11:49;9.50;99.90
13229;DHT22;6680;53.220;10.402;2023-03-14T03:14:16;9.60;99.90
13229;DHT22;6680;53.220;10.402;2023-03-14T03:16:43;9.60;99.90
13229;DHT22;6680;53.220;10.402;2023-03-14T03:19:11;9.70;99.90
13229;DHT22;6680;53.220;10.402;2023-03-14T03:21:39;9.70;99.90
13229;DHT22;6680;53.220;10.402;2023-03-14T03:24:05;9.70;99.90
13229;DHT22;6680;53.220;10.402;2023-03-14T03:26:33;9.80;99.90
13229;DHT22;6680;53.220;10.402;2023-03-14T03:29:00;9.80;99.90
13229;DHT22;6680;53.220;10.402;2023-03-14T03:31:26;9.80;99.90
13229;DHT22;6680;53.220;10.402;2023-03-14T03:33:53;9.80;99.90
13229;DHT22;6680;53.220;10.402;2023-03-14T03:36:22;9.80;99.90
13229;DHT22;6680;53.220;10.402;2023-03-14T03:38:50;9.90;99.90
13229;DHT22;6680;53.220;10.402;2023-03-14T03:41:16;9.80;99.90
13229;DHT22;6680;53.220;10.402;2023-03-14T03:43:43;9.80;99.90
13229;DHT22;6680;53.220;10.402;2023-03-14T03:46:10;9.80;99.90
13229;DHT22;6680;53.220;10.402;2023-03-14T03:48:36;10.00;99.90
13229;DHT22;6680;53.220;10.402;2023-03-14T03:51:04;9.80;99.90
13229;DHT22;6680;53.220;10.402;2023-03-14T03:53:32;9.90;99.90
13229;DHT22;6680;53.220;10.402;2023-03-14T03:55:59;9.90;99.90
13229;DHT22;6680;53.220;10.402;2023-03-14T03:58:26;10.20;99.90
13229;DHT22;6680;53.220;10.402;2023-03-14T04:00:53;10.10;99.90
13229;DHT22;6680;53.220;10.402;2023-03-14T04:03:20;10.00;99.90
13229;DHT22;6680;53.220;10.402;2023-03-14T04:05:57;9.90;99.90
13229;DHT22;6680;53.220;10.402;2023-03-14T04:08:23;9.70;99.90
13229;DHT22;6680;53.220;10.402;2023-03-14T04:10:54;9.80;99.90
13229;DHT22;6680;53.220;10.402;2023-03-14T04:13:21;9.90;99.90
13229;DHT22;6680;53.220;10.402;2023-03-14T04:15:48;9.80;99.90
13229;DHT22;6680;53.220;10.402;2023-03-14T04:18:15;9.80;99.90
13229;DHT22;6680;53.220;10.402;2023-03-14T04:20:41;9.80;99.90
13229;DHT22;6680;53.220;10.402;2023-03-14T04:23:08;9.70;99.90
13229;DHT22;6680;53.220;10.402;2023-03-14T04:25:35;9.60;99.90
13229;DHT22;6680;53.220;10.402;2023-03-14T04:28:03;9.50;99.90
13229;DHT22;6680;53.220;10.402;2023-03-14T04:30:30;9.50;99.90
13229;DHT22;6680;53.220;10.402;2023-03-14T04:32:57;9.50;99.90
13229;DHT22;6680;53.220;10.402;2023-03-14T04:35:23;9.50;99.90
13229;DHT22;6680;53.220;10.402;2023-03-14T04:37:50;9.60;99.90
13229;DHT22;6680;53.220;10.402;2023-03-14T04:40:17;9.60;99.90
13229;DHT22;6680;53.220;10.402;2023-03-14T04:42:44;9.70;99.90
13229;DHT22;6680;53.220;10.402;2023-03-14T04:45:12;9.80;99.90
13229;DHT22;6680;53.220;10.402;2023-03-14T04:47:39;9.90;99.90
13229;DHT22;6680;53.220;10.402;2023-03-14T04:50:06;9.90;99.90
13229;DHT22;6680;53.220;10.402;2023-03-14T04:52:33;10.00;99.90
13229;DHT22;6680;53.220;10.402;2023-03-14T04:54:59;10.00;99.90
13229;DHT22;6680;53.220;10.402;2023-03-14T04:57:26;10.10;99.90
13229;DHT22;6680;53.220;10.402;2023-03-14T04:59:53;10.20;99.90
13229;DHT22;6680;53.220;10.402;2023-03-14T05:02:21;10.20;99.90
13229;DHT22;6680;53.220;10.402;2023-03-14T05:04:47;10.30;99.90
13229;DHT22;6680;53.220;10.402;2023-03-14T05:07:14;10.30;99.90
13229;DHT22;6680;53.220;10.402;2023-03-14T05:09:41;10.40;99.90
13229;DHT22;6680;53.220;10.402;2023-03-14T05:12:07;10.50;99.90
13229;DHT22;6680;53.220;10.402;2023-03-14T05:14:34;10.50;99.90
13229;DHT22;6680;53.220;10.402;2023-03-14T05:17:01;10.60;99.90
13229;DHT22;6680;53.220;10.402;2023-03-14T05:19:29;10.60;99.90
13229;DHT22;6680;53.220;10.402;2023-03-14T05:21:55;10.60;99.90
13229;DHT22;6680;53.220;10.402;2023-03-14T05:24:22;10.60;99.90
13229;DHT22;6680;53.220;10.402;2023-03-14T05:26:49;10.60;99.90
13229;DHT22;6680;53.220;10.402;2023-03-14T05:29:16;10.50;99.90
13229;DHT22;6680;53.220;10.402;2023-03-14T05:31:42;10.40;99.90
13229;DHT22;6680;53.220;10.402;2023-03-14T05:34:09;10.40;99.90
13229;DHT22;6680;53.220;10.402;2023-03-14T05:36:38;10.40;99.90
13229;DHT22;6680;53.220;10.402;2023-03-14T05:39:04;10.30;99.90
13229;DHT22;6680;53.220;10.402;2023-03-14T05:41:31;10.30;99.90
13229;DHT22;6680;53.220;10.402;2023-03-14T05:43:58;10.20;99.90
13229;DHT22;6680;53.220;10.402;2023-03-14T05:46:25;10.20;99.90
13229;DHT22;6680;53.220;10.402;2023-03-14T05:48:51;10.10;99.90
13229;DHT22;6680;53.220;10.402;2023-03-14T05:51:18;10.00;99.90
13229;DHT22;6680;53.220;10.402;2023-03-14T05:53:46;10.00;99.90
13229;DHT22;6680;53.220;10.402;2023-03-14T05:56:13;10.00;99.90
13229;DHT22;6680;53.220;10.402;2023-03-14T05:58:39;9.90;99.90
13229;DHT22;6680;53.220;10.402;2023-03-14T06:01:07;9.80;99.90
13229;DHT22;6680;53.220;10.402;2023-03-14T06:03:34;9.80;99.90
13229;DHT22;6680;53.220;10.402;2023-03-14T06:06:01;9.70;99.90
13229;DHT22;6680;53.220;10.402;2023-03-14T06:08:28;9.90;99.90
13229;DHT22;6680;53.220;10.402;2023-03-14T06:10:57;9.80;99.90
13229;DHT22;6680;53.220;10.402;2023-03-14T06:13:23;9.80;99.90
13229;DHT22;6680;53.220;10.402;2023-03-14T06:15:50;9.80;99.90
13229;DHT22;6680;53.220;10.402;2023-03-14T06:18:17;9.90;99.90
13229;DHT22;6680;53.220;10.402;2023-03-14T06:20:43;10.00;99.90
13229;DHT22;6680;53.220;10.402;2023-03-14T06:23:10;10.00;99.90
13229;DHT22;6680;53.220;10.402;2023-03-14T06:25:37;10.10;99.90
13229;DHT22;6680;53.220;10.402;2023-03-14T06:28:05;10.10;99.90
13229;DHT22;6680;53.220;10.402;2023-03-14T06:30:32;10.20;99.90
13229;DHT22;6680;53.220;10.402;2023-03-14T06:32:59;10.20;99.90
13229;DHT22;6680;53.220;10.402;2023-03-14T06:35:25;10.20;99.90
13229;DHT22;6680;53.220;10.402;2023-03-14T06:37:52;10.20;99.90
13229;DHT22;6680;53.220;10.402;2023-03-14T06:40:19;10.20;99.90
13229;DHT22;6680;53.220;10.402;2023-03-14T06:42:46;10.20;99.90
13229;DHT22;6680;53.220;10.402;2023-03-14T06:45:15;10.20;99.90
13229;DHT22;6680;53.220;10.402;2023-03-14T06:47:42;10.20;99.90
13229;DHT22;6680;53.220;10.402;2023-03-14T06:50:10;10.20;99.90
13229;DHT22;6680;53.220;10.402;2023-03-14T06:52:37;10.30;99.90
13229;DHT22;6680;53.220;10.402;2023-03-14T06:55:07;10.30;99.90
13229;DHT22;6680;53.220;10.402;2023-03-14T06:57:33;10.30;99.90
13229;DHT22;6680;53.220;10.402;2023-03-14T07:00:00;10.20;99.90
13229;DHT22;6680;53.220;10.402;2023-03-14T07:02:28;10.20;99.90
13229;DHT22;6680;53.220;10.402;2023-03-14T07:04:55;10.20;99.90
13229;DHT22;6680;53.220;10.402;2023-03-14T07:07:21;10.10;99.90
13229;DHT22;6680;53.220;10.402;2023-03-14T07:09:48;10.20;99.90
13229;DHT22;6680;53.220;10.402;2023-03-14T07:12:15;10.20;99.90
13229;DHT22;6680;53.220;10.402;2023-03-14T07:14:42;10.20;99.90
13229;DHT22;6680;53.220;10.402;2023-03-14T07:17:08;10.20;99.90
13229;DHT22;6680;53.220;10.402;2023-03-14T07:19:36;10.10;99.90
13229;DHT22;6680;53.220;10.402;2023-03-14T07:22:04;10.00;99.90
13229;DHT22;6680;53.220;10.402;2023-03-14T07:24:30;10.00;99.90
13229;DHT22;6680;53.220;10.402;2023-03-14T07:26:57;9.90;99.90
13229;DHT22;6680;53.220;10.402;2023-03-14T07:29:24;9.90;99.90
13229;DHT22;6680;53.220;10.402;2023-03-14T07:31:50;10.00;99.90
13229;DHT22;6680;53.220;10.402;2023-03-14T07:34:17;9.90;99.90
13229;DHT22;6680;53.220;10.402;2023-03-14T07:36:46;9.90;99.90
13229;DHT22;6680;53.220;10.402;2023-03-14T07:39:12;9.80;99.90
13229;DHT22;6680;53.220;10.402;2023-03-14T07:41:39;9.80;99.90
13229;DHT22;6680;53.220;10.402;2023-03-14T07:44:06;9.80;99.90
13229;DHT22;6680;53.220;10.402;2023-03-14T07:46:32;9.90;99.90
13229;DHT22;6680;53.220;10.402;2023-03-14T07:48:59;10.00;99.90
13229;DHT22;6680;53.220;10.402;2023-03-14T07:51:26;10.10;99.90
13229;DHT22;6680;53.220;10.402;2023-03-14T07:53:54;10.20;99.90
13229;DHT22;6680;53.220;10.402;2023-03-14T07:56:20;10.30;99.90
13229;DHT22;6680;53.220;10.402;2023-03-14T07:58:47;10.30;99.90
13229;DHT22;6680;53.220;10.402;2023-03-14T08:01:14;10.50;99.90
13229;DHT22;6680;53.220;10.402;2023-03-14T08:03:41;10.60;99.90
13229;DHT22;6680;53.220;10.402;2023-03-14T08:06:08;10.70;99.90
13229;DHT22;6680;53.220;10.402;2023-03-14T08:08:34;11.10;99.90
13229;DHT22;6680;53.220;10.402;2023-03-14T08:11:06;11.00;99.90
13229;DHT22;6680;53.220;10.402;2023-03-14T08:13:34;11.20;99.90
13229;DHT22;6680;53.220;10.402;2023-03-14T08:16:01;11.30;99.90
13229;DHT22;6680;53.220;10.402;2023-03-14T08:18:28;11.60;99.90
13229;DHT22;6680;53.220;10.402;2023-03-14T08:20:54;11.50;99.90
13229;DHT22;6680;53.220;10.402;2023-03-14T08:23:21;11.70;99.90
13229;DHT22;6680;53.220;10.402;2023-03-14T08:25:48;11.80;99.90
13229;DHT22;6680;53.220;10.402;2023-03-14T08:28:17;11.90;99.90
13229;DHT22;6680;53.220;10.402;2023-03-14T08:30:44;12.10;99.90
13229;DHT22;6680;53.220;10.402;2023-03-14T08:33:10;12.10;99.90
13229;DHT22;6680;53.220;10.402;2023-03-14T08:35:38;12.10;99.90
13229;DHT22;6680;53.220;10.402;2023-03-14T08:38:05;12.20;99.90
13229;DHT22;6680;53.220;10.402;2023-03-14T08:40:31;12.20;99.90
13229;DHT22;6680;53.220;10.402;2023-03-14T08:42:58;12.10;99.90
13229;DHT22;6680;53.220;10.402;2023-03-14T08:45:26;12.10;99.90
13229;DHT22;6680;53.220;10.402;2023-03-14T08:47:53;12.20;99.90
13229;DHT22;6680;53.220;10.402;2023-03-14T08:50:19;12.20;99.90
13229;DHT22;6680;53.220;10.402;2023-03-14T08:52:48;12.20;99.90
13229;DHT22;6680;53.220;10.402;2023-03-14T08:55:15;12.20;99.90
13229;DHT22;6680;53.220;10.402;2023-03-14T08:57:42;12.20;99.90
13229;DHT22;6680;53.220;10.402;2023-03-14T09:00:09;12.20;99.90
13229;DHT22;6680;53.220;10.402;2023-03-14T09:02:39;12.20;99.90
13229;DHT22;6680;53.220;10.402;2023-03-14T09:05:07;12.10;99.90
13229;DHT22;6680;53.220;10.402;2023-03-14T09:07:34;12.10;99.90
13229;DHT22;6680;53.220;10.402;2023-03-14T09:10:00;12.10;99.90
13229;DHT22;6680;53.220;10.402;2023-03-14T09:12:27;12.20;99.90
13229;DHT22;6680;53.220;10.402;2023-03-14T09:14:54;12.40;99.90
13229;DHT22;6680;53.220;10.402;2023-03-14T09:17:20;12.60;99.90
13229;DHT22;6680;53.220;10.402;2023-03-14T09:19:48;12.70;99.90
13229;DHT22;6680;53.220;10.402;2023-03-14T09:22:15;12.80;99.90
13229;DHT22;6680;53.220;10.402;2023-03-14T09:24:42;12.90;99.90
13229;DHT22;6680;53.220;10.402;2023-03-14T09:27:09;13.00;99.90
13229;DHT22;6680;53.220;10.402;2023-03-14T09:29:35;12.90;99.90
13229;DHT22;6680;53.220;10.402;2023-03-14T09:32:02;12.90;99.90
13229;DHT22;6680;53.220;10.402;2023-03-14T09:34:29;12.80;99.90
13229;DHT22;6680;53.220;10.402;2023-03-14T09:36:57;12.70;99.90
13229;DHT22;6680;53.220;10.402;2023-03-14T09:39:24;12.70;99.90
13229;DHT22;6680;53.220;10.402;2023-03-14T09:41:52;12.70;99.90
13229;DHT22;6680;53.220;10.402;2023-03-14T09:44:21;12.70;99.90
13229;DHT22;6680;53.220;10.402;2023-03-14T09:46:53;12.80;99.90
13229;DHT22;6680;53.220;10.402;2023-03-14T09:49:23;12.90;99.90
13229;DHT22;6680;53.220;10.402;2023-03-14T09:51:53;13.10;99.90
13229;DHT22;6680;53.220;10.402;2023-03-14T09:54:31;13.10;99.90
13229;DHT22;6680;53.220;10.402;2023-03-14T09:56:58;13.10;99.90
13229;DHT22;6680;53.220;10.402;2023-03-14T09:59:26;13.00;99.90
13229;DHT22;6680;53.220;10.402;2023-03-14T10:01:53;13.00;99.90
13229;DHT22;6680;53.220;10.402;2023-03-14T10:04:22;13.00;99.90
13229;DHT22;6680;53.220;10.402;2023-03-14T10:06:50;13.00;99.90
13229;DHT22;6680;53.220;10.402;2023-03-14T10:09:19;13.00;99.90
13229;DHT22;6680;53.220;10.402;2023-03-14T10:11:55;13.20;99.90
13229;DHT22;6680;53.220;10.402;2023-03-14T10:14:30;13.30;99.90
13229;DHT22;6680;53.220;10.402;2023-03-14T10:17:05;13.40;99.90
13229;DHT22;6680;53.220;10.402;2023-03-14T10:19:33;13.50;99.90
13229;DHT22;6680;53.220;10.402;2023-03-14T10:22:02;13.50;99.90
13229;DHT22;6680;53.220;10.402;2023-03-14T10:24:31;13.40;99.90
13229;DHT22;6680;53.220;10.402;2023-03-14T10:27:01;13.20;99.90
13229;DHT22;6680;53.220;10.402;2023-03-14T10:29:29;13.20;99.90
13229;DHT22;6680;53.220;10.402;2023-03-14T10:31:59;12.90;99.90
13229;DHT22;6680;53.220;10.402;2023-03-14T10:34:28;12.80;99.90
13229;DHT22;6680;53.220;10.402;2023-03-14T10:36:58;12.60;99.90
13229;DHT22;6680;53.220;10.402;2023-03-14T10:39:29;12.20;99.90
13229;DHT22;6680;53.220;10.402;2023-03-14T10:42:05;12.00;99.90
13229;DHT22;6680;53.220;10.402;2023-03-14T10:44:34;11.70;99.90
13229;DHT22;6680;53.220;10.402;2023-03-14T10:47:03;11.40;99.90
13229;DHT22;6680;53.220;10.402;2023-03-14T10:49:31;11.10;99.90
13229;DHT22;6680;53.220;10.402;2023-03-14T10:52:02;11.00;99.90
13229;DHT22;6680;53.220;10.402;2023-03-14T10:54:38;11.00;99.90
13229;DHT22;6680;53.220;10.402;2023-03-14T10:57:06;11.00;99.90
13229;DHT22;6680;53.220;10.402;2023-03-14T10:59:35;10.90;99.90
13229;DHT22;6680;53.220;10.402;2023-03-14T11:02:12;10.10;99.90
13229;DHT22;6680;53.220;10.402;2023-03-14T11:04:55;9.40;99.90
13229;DHT22;6680;53.220;10.402;2023-03-14T11:07:27;9.00;99.90
13229;DHT22;6680;53.220;10.402;2023-03-14T11:09:58;8.70;99.90
13229;DHT22;6680;53.220;10.402;2023-03-14T11:12:38;8.50;99.90
13229;DHT22;6680;53.220;10.402;2023-03-14T11:15:14;8.40;99.90
13229;DHT22;6680;53.220;10.402;2023-03-14T11:17:51;8.10;99.90
13229;DHT22;6680;53.220;10.402;2023-03-14T11:20:35;7.90;99.90
13229;DHT22;6680;53.220;10.402;2023-03-14T11:23:08;7.90;99.90
13229;DHT22;6680;53.220;10.402;2023-03-14T11:25:43;7.70;99.90
13229;DHT22;6680;53.220;10.402;2023-03-14T11:28:18;7.50;99.90
13229;DHT22;6680;53.220;10.402;2023-03-14T11:30:50;7.40;99.90
13229;DHT22;6680;53.220;10.402;2023-03-14T11:33:21;7.20;99.90
13229;DHT22;6680;53.220;10.402;2023-03-14T11:35:55;7.00;99.90
13229;DHT22;6680;53.220;10.402;2023-03-14T11:38:29;6.80;99.90
13229;DHT22;6680;53.220;10.402;2023-03-14T11:40:58;6.70;99.90
13229;DHT22;6680;53.220;10.402;2023-03-14T11:43:29;7.30;99.90
13229;DHT22;6680;53.220;10.402;2023-03-14T11:46:01;6.40;99.90
13229;DHT22;6680;53.220;10.402;2023-03-14T11:48:36;5.90;99.90
13229;DHT22;6680;53.220;10.402;2023-03-14T11:51:07;5.90;99.90
13229;DHT22;6680;53.220;10.402;2023-03-14T11:53:45;5.60;99.90
13229;DHT22;6680;53.220;10.402;2023-03-14T11:56:18;5.50;99.90
13229;DHT22;6680;53.220;10.402;2023-03-14T11:58:51;5.40;99.90
13229;DHT22;6680;53.220;10.402;2023-03-14T12:01:20;5.30;99.90
13229;DHT22;6680;53.220;10.402;2023-03-14T12:03:55;5.30;99.90
13229;DHT22;6680;53.220;10.402;2023-03-14T12:06:27;5.30;99.90
13229;DHT22;6680;53.220;10.402;2023-03-14T12:08:58;5.30;99.90
13229;DHT22;6680;53.220;10.402;2023-03-14T12:11:35;5.20;99.90
13229;DHT22;6680;53.220;10.402;2023-03-14T12:14:18;5.20;99.90
13229;DHT22;6680;53.220;10.402;2023-03-14T12:16:46;5.20;99.90
13229;DHT22;6680;53.220;10.402;2023-03-14T12:19:21;5.10;99.90
13229;DHT22;6680;53.220;10.402;2023-03-14T12:21:53;5.00;99.90
13229;DHT22;6680;53.220;10.402;2023-03-14T12:24:24;4.90;99.90
13229;DHT22;6680;53.220;10.402;2023-03-14T12:26:54;4.80;99.90
13229;DHT22;6680;53.220;10.402;2023-03-14T12:29:22;4.70;99.90
13229;DHT22;6680;53.220;10.402;2023-03-14T12:32:06;4.70;99.90
13229;DHT22;6680;53.220;10.402;2023-03-14T12:34:34;4.70;99.90
13229;DHT22;6680;53.220;10.402;2023-03-14T12:37:06;4.80;99.90
13229;DHT22;6680;53.220;10.402;2023-03-14T12:39:45;4.70;99.90
13229;DHT22;6680;53.220;10.402;2023-03-14T12:42:21;4.60;99.90
13229;DHT22;6680;53.220;10.402;2023-03-14T12:44:51;4.40;99.90
13229;DHT22;6680;53.220;10.402;2023-03-14T12:47:50;4.50;99.90
13229;DHT22;6680;53.220;10.402;2023-03-14T12:50:32;4.50;99.90
13229;DHT22;6680;53.220;10.402;2023-03-14T12:53:36;4.50;99.90
13229;DHT22;6680;53.220;10.402;2023-03-14T12:56:12;4.60;99.90
13229;DHT22;6680;53.220;10.402;2023-03-14T12:58:49;4.50;99.90
13229;DHT22;6680;53.220;10.402;2023-03-14T13:01:22;4.50;99.90
13229;DHT22;6680;53.220;10.402;2023-03-14T13:03:51;4.50;99.90
13229;DHT22;6680;53.220;10.402;2023-03-14T13:06:48;4.40;99.90
13229;DHT22;6680;53.220;10.402;2023-03-14T13:09:47;4.50;99.90
13229;DHT22;6680;53.220;10.402;2023-03-14T13:12:17;4.50;99.90
13229;DHT22;6680;53.220;10.402;2023-03-14T13:14:47;4.60;99.90
13229;DHT22;6680;53.220;10.402;2023-03-14T13:17:23;4.70;99.90
13229;DHT22;6680;53.220;10.402;2023-03-14T13:19:53;4.70;99.90
13229;DHT22;6680;53.220;10.402;2023-03-14T13:22:24;4.80;99.90
13229;DHT22;6680;53.220;10.402;2023-03-14T13:24:59;4.90;99.90
13229;DHT22;6680;53.220;10.402;2023-03-14T13:27:25;5.00;99.90
13229;DHT22;6680;53.220;10.402;2023-03-14T13:29:52;5.00;99.90
13229;DHT22;6680;53.220;10.402;2023-03-14T13:32:22;5.20;99.90
13229;DHT22;6680;53.220;10.402;2023-03-14T13:34:49;5.30;99.90
13229;DHT22;6680;53.220;10.402;2023-03-14T13:37:17;5.40;99.90
13229;DHT22;6680;53.220;10.402;2023-03-14T13:39:49;5.30;99.90
13229;DHT22;6680;53.220;10.402;2023-03-14T13:42:17;5.30;99.90
13229;DHT22;6680;53.220;10.402;2023-03-14T13:44:44;5.10;99.90
13229;DHT22;6680;53.220;10.402;2023-03-14T13:47:15;5.20;99.90
13229;DHT22;6680;53.220;10.402;2023-03-14T13:49:44;5.10;99.90
13229;DHT22;6680;53.220;10.402;2023-03-14T13:52:23;5.00;99.90
13229;DHT22;6680;53.220;10.402;2023-03-14T13:54:53;5.00;99.90
13229;DHT22;6680;53.220;10.402;2023-03-14T13:57:20;4.90;99.90
13229;DHT22;6680;53.220;10.402;2023-03-14T13:59:59;5.00;99.90
13229;DHT22;6680;53.220;10.402;2023-03-14T14:02:26;5.10;99.90
13229;DHT22;6680;53.220;10.402;2023-03-14T14:04:56;5.30;99.90
13229;DHT22;6680;53.220;10.402;2023-03-14T14:07:22;5.40;99.90
13229;DHT22;6680;53.220;10.402;2023-03-14T14:09:51;6.30;99.90
13229;DHT22;6680;53.220;10.402;2023-03-14T14:12:22;5.60;99.90
13229;DHT22;6680;53.220;10.402;2023-03-14T14:14:53;5.70;99.90
13229;DHT22;6680;53.220;10.402;2023-03-14T14:17:25;5.90;99.90
13229;DHT22;6680;53.220;10.402;2023-03-14T14:19:55;6.00;99.90
13229;DHT22;6680;53.220;10.402;2023-03-14T14:22:22;6.00;99.90
13229;DHT22;6680;53.220;10.402;2023-03-14T14:24:49;5.80;99.90
13229;DHT22;6680;53.220;10.402;2023-03-14T14:27:19;5.80;99.90
13229;DHT22;6680;53.220;10.402;2023-03-14T14:29:58;5.80;99.90
13229;DHT22;6680;53.220;10.402;2023-03-14T14:32:25;5.80;99.90
13229;DHT22;6680;53.220;10.402;2023-03-14T14:34:58;5.80;99.90
13229;DHT22;6680;53.220;10.402;2023-03-14T14:37:26;5.90;99.90
13229;DHT22;6680;53.220;10.402;2023-03-14T14:39:56;6.00;99.90
13229;DHT22;6680;53.220;10.402;2023-03-14T14:42:26;6.00;99.90
13229;DHT22;6680;53.220;10.402;2023-03-14T14:44:54;6.00;99.90
13229;DHT22;6680;53.220;10.402;2023-03-14T14:47:24;6.00;99.90
13229;DHT22;6680;53.220;10.402;2023-03-14T14:49:52;6.00;99.90
13229;DHT22;6680;53.220;10.402;2023-03-14T14:52:27;5.90;99.90
13229;DHT22;6680;53.220;10.402;2023-03-14T14:54:59;5.80;99.90
13229;DHT22;6680;53.220;10.402;2023-03-14T14:57:27;5.80;99.90
13229;DHT22;6680;53.220;10.402;2023-03-14T14:59:59;5.90;99.90
13229;DHT22;6680;53.220;10.402;2023-03-14T15:02:36;5.90;99.90
13229;DHT22;6680;53.220;10.402;2023-03-14T15:05:08;5.90;99.90
13229;DHT22;6680;53.220;10.402;2023-03-14T15:07:39;5.80;99.90
13229;DHT22;6680;53.220;10.402;2023-03-14T15:10:10;5.90;99.90
13229;DHT22;6680;53.220;10.402;2023-03-14T15:15:05;5.90;99.90
13229;DHT22;6680;53.220;10.402;2023-03-14T15:17:32;5.90;99.90
13229;DHT22;6680;53.220;10.402;2023-03-14T15:19:58;5.80;99.90
13229;DHT22;6680;53.220;10.402;2023-03-14T15:22:25;5.80;99.90
13229;DHT22;6680;53.220;10.402;2023-03-14T15:24:53;5.70;99.90
13229;DHT22;6680;53.220;10.402;2023-03-14T15:27:20;5.70;99.90
13229;DHT22;6680;53.220;10.402;2023-03-14T15:32:15;5.60;99.90
13229;DHT22;6680;53.220;10.402;2023-03-14T15:34:43;5.60;99.90
13229;DHT22;6680;53.220;10.402;2023-03-14T15:37:11;5.60;99.90
13229;DHT22;6680;53.220;10.402;2023-03-14T15:39:38;5.60;99.90
13229;DHT22;6680;53.220;10.402;2023-03-14T15:42:06;5.60;99.90
13229;DHT22;6680;53.220;10.402;2023-03-14T15:44:33;5.60;99.90
13229;DHT22;6680;53.220;10.402;2023-03-14T15:47:00;5.70;99.90
13229;DHT22;6680;53.220;10.402;2023-03-14T15:49:26;5.60;99.90
13229;DHT22;6680;53.220;10.402;2023-03-14T15:51:53;5.50;99.90
13229;DHT22;6680;53.220;10.402;2023-03-14T15:54:20;5.50;99.90